Flight Track Log - Related Links

Times and Time Zones

All times are in EST time to prevent confusion due to time zone crossing. See the N789EX flight status page for this flight to view local times or setup timezone preferences in your user account.

Time Position Orientation Groundspeed Altitude Reporting Facility
EST Latitude Longitude Course Direction KTS MPH feet Rate Location/Type
Tue 01:17:48 PM 47.5031 -122.2794 146° Southeast 183 211 1,400  Level Seattle Center
Tue 01:17:54 PM 47.4975 -122.2739 146° Southeast 197 227 1,700 2,060 Climbing Seattle Center
Tue 01:18:55 PM 47.4453 -122.2183 144° Southeast 231 266 3,700 2,459 Climbing Seattle Center
Tue 01:19:56 PM 47.4328 -122.1267 101° East 278 320 6,700 2,754 Climbing Seattle Center
Tue 01:20:57 PM 47.5114 -122.1136 North 296 341 9,300 2,115 Climbing Seattle Center
Tue 01:21:58 PM 47.6003 -122.1267 354° North 326 375 11,000 1,475 Climbing Seattle Center
Tue 01:22:59 PM 47.7078 -122.1783 342° North 379 436 12,300 1,820 Climbing Seattle Center
Tue 01:24:00 PM 47.8297 -122.1869 357° North 435 501 14,700 2,213 Climbing Seattle Center
Tue 01:25:01 PM 47.9533 -122.1617 North 449 517 16,800 1,131 Climbing Seattle Center
Tue 01:26:02 PM 48.0744 -122.1078 17° North 465 535 17,000 98 Climbing Seattle Center
Tue 01:27:03 PM 48.1219 -121.9422 67° East 449 517 17,000 -443 Level Seattle Center
Tue 01:28:04 PM 48.1128 -121.7628 94° East 433 498 16,100 -1,131 Descending Seattle Center
Tue 01:29:05 PM 48.1036 -121.6017 95° East 397 457 14,700 -1,377 Descending Seattle Center
Tue 01:30:06 PM 48.0978 -121.4683 94° East 326 375 13,300 -1,377 Descending Seattle Center
Tue 01:31:07 PM 48.0906 -121.3422 95° East 306 352 11,900 -1,339 Descending Seattle Center
Tue 01:32:07 PM 48.0847 -121.2203 94° East 294 338 10,600 -942 Descending Seattle Center
Tue 01:33:08 PM 48.0778 -121.0978 95° East 296 341 10,000 -295 Descending Seattle Center
Tue 01:34:09 PM 48.0714 -120.9781 95° East 291 335 10,000 49 Level Seattle Center
Tue 01:35:10 PM 48.0647 -120.8400 94° East 291 335 10,100 49 Climbing Seattle Center
Tue 01:36:11 PM 48.0583 -120.7217 95° East 289 333 10,100  Level Seattle Center
Tue 01:37:12 PM 48.0519 -120.6025 95° East 287 330 10,100  Level Seattle Center
Tue 01:38:13 PM 48.0472 -120.4833 93° East 288 331 10,100  Level Seattle Center
Tue 01:39:14 PM 48.0375 -120.3619 97° East 291 335 10,100  Level Seattle Center
Tue 01:40:15 PM 48.0300 -120.2414 95° East 292 336 10,100  Level Seattle Center
Tue 01:41:16 PM 48.0236 -120.1308 95° East 279 321 10,100  Level Seattle Center
Tue 01:42:17 PM 48.0147 -120.0264 97° East 258 297 10,100  Level Seattle Center
Tue 01:43:18 PM 48.0069 -119.9042 95° East 291 335 10,100  Level Seattle Center
Tue 01:44:19 PM 48.0006 -119.7853 95° East 291 335 10,100 -49 Level Seattle Center
Tue 01:45:20 PM 47.9931 -119.6817 96° East 261 300 10,000 -49 Descending Seattle Center
Tue 01:46:21 PM 47.9850 -119.5775 97° East 253 291 10,000  Level Seattle Center
Tue 01:47:22 PM 47.9786 -119.4739 95° East 253 291 10,000  Level Seattle Center
Tue 01:48:23 PM 47.9694 -119.3486 96° East 253 291 10,000 -98 Level Seattle Center
Tue 01:49:24 PM 47.9628 -119.2447 95° East 252 290 9,800 -49 Descending Seattle Center
Tue 01:50:25 PM 47.9564 -119.1389 95° East 255 293 9,900 49 Climbing Seattle Center
Tue 01:51:26 PM 47.9469 -119.0206 97° East 286 329 9,900  Level Seattle Center
Tue 01:52:27 PM 47.9378 -118.9008 96° East 292 336 9,900  Level Seattle Center
Tue 01:53:28 PM 47.9292 -118.7794 96° East 293 337 9,900  Level Seattle Center
Tue 01:54:29 PM 47.9189 -118.6586 97° East 296 341 9,900  Level Seattle Center
Tue 01:55:30 PM 47.9083 -118.5086 96° East 362 417 9,900  Level Seattle Center
Tue 01:56:31 PM 47.8978 -118.3594 96° East 364 419 9,900  Level Seattle Center
Tue 01:57:32 PM 47.8853 -118.2094 97° East 364 419 9,900 49 Level Seattle Center
Tue 01:58:33 PM 47.8733 -118.0606 97° East 364 419 10,000  Climbing Seattle Center
Tue 01:59:34 PM 47.8603 -117.9111 97° East 364 419 9,900  Descending Seattle Center
Tue 02:00:35 PM 47.8442 -117.7319 98° East 364 419 10,000 49 Climbing Seattle Center
Tue 02:01:36 PM 47.8339 -117.5817 96° East 365 420 10,000  Level Seattle Center
Tue 02:02:37 PM 47.8250 -117.4297 95° East 368 423 10,000 -49 Level Seattle Center
Tue 02:03:38 PM 47.8158 -117.2781 95° East 367 422 9,900  Descending Seattle Center
Tue 02:04:39 PM 47.8028 -117.1225 97° East 366 421 10,000 49 Climbing Seattle Center
Tue 02:05:40 PM 47.7886 -116.9728 98° East 367 422 10,000  Level Seattle Center
Tue 02:06:41 PM 47.7728 -116.8222 99° East 371 427 10,000 -49 Level Seattle Center
Tue 02:07:42 PM 47.7544 -116.6728 100° East 365 420 9,900 -49 Descending Seattle Center
Tue 02:08:44 PM 47.7083 -116.5681 123° Southeast 297 342 9,900  Level Seattle Center
Tue 02:09:45 PM 47.6636 -116.4914 131° Southeast 250 288 9,900 49 Level Seattle Center
Tue 02:10:46 PM 47.7075 -116.4694 19° North 237 273 10,000  Climbing Seattle Center
Tue 02:11:47 PM 47.7161 -116.5381 281° West 181 208 9,900 -49 Descending Seattle Center
Tue 02:12:48 PM 47.7297 -116.6058 287° West 173 199 9,900  Level Seattle Center
Tue 02:13:49 PM 47.7428 -116.6747 286° West 174 200 9,900  Level Seattle Center
Tue 02:14:50 PM 47.7575 -116.7431 288° West 175 201 9,900  Level Seattle Center
Tue 02:15:51 PM 47.7644 -116.8292 277° West 178 205 9,900 49 Level Seattle Center
Tue 02:16:52 PM 47.7722 -116.9033 279° West 176 203 10,000 49 Climbing Seattle Center
Tue 02:17:53 PM 47.7806 -116.9747 280° West 176 203 10,000  Level Seattle Center
Tue 02:18:54 PM 47.7856 -117.0439 276° West 172 198 10,000  Level Seattle Center
Tue 02:19:55 PM 47.7925 -117.1164 278° West 177 204 10,000  Level Seattle Center
Tue 02:20:56 PM 47.7972 -117.1958 275° West 179 206 10,000  Level Seattle Center
Tue 02:21:57 PM 47.8017 -117.2692 275° West 178 205 10,000 -49 Level Seattle Center
Tue 02:22:58 PM 47.8083 -117.3308 279° West 178 205 9,900  Descending Seattle Center
Tue 02:23:59 PM 47.8158 -117.4219 277° West 180 207 10,000 49 Climbing Seattle Center
Tue 02:25:00 PM 47.8214 -117.4933 277° West 180 207 10,000 49 Level Seattle Center
Tue 02:26:01 PM 47.8267 -117.5692 276° West 180 207 10,100 49 Climbing Seattle Center
Tue 02:27:02 PM 47.8314 -117.6411 276° West 180 207 10,100  Level Seattle Center
Tue 02:28:04 PM 47.8356 -117.7144 275° West 180 207 10,100  Level Seattle Center
Tue 02:29:05 PM 47.8383 -117.7875 273° West 178 205 10,100 -49 Level Seattle Center
Tue 02:30:06 PM 47.8406 -117.8611 273° West 179 206 10,000 -49 Descending Seattle Center
Tue 02:31:07 PM 47.8422 -117.9350 272° West 179 206 10,000  Level Seattle Center
Tue 02:32:08 PM 47.8428 -118.0133 271° West 189 217 10,000  Level Seattle Center
Tue 02:33:09 PM 47.8425 -118.0981 270° West 199 229 10,000 -49 Level Seattle Center
Tue 02:34:10 PM 47.8403 -118.1769 268° West 197 227 9,900  Descending Seattle Center
Tue 02:35:11 PM 47.8372 -118.2758 267° West 199 229 10,000 49 Climbing Seattle Center
Tue 02:36:12 PM 47.8344 -118.3567 267° West 196 226 10,000 49 Level Seattle Center
Tue 02:37:13 PM 47.8411 -118.4397 277° West 202 232 10,100 49 Climbing Seattle Center
Tue 02:38:14 PM 47.8486 -118.5214 278° West 200 230 10,100 -49 Level Seattle Center
Tue 02:39:15 PM 47.8581 -118.6017 280° West 198 228 10,000 -49 Descending Seattle Center
Tue 02:40:16 PM 47.8647 -118.6908 276° West 219 252 10,000 -49 Level Seattle Center
Tue 02:41:17 PM 47.8725 -118.7975 276° West 258 297 9,900 -49 Descending Seattle Center
Tue 02:42:19 PM 47.8772 -118.9053 274° West 261 300 9,900  Level Seattle Center
Tue 02:43:20 PM 47.8844 -119.0089 276° West 257 296 9,900 492 Level Seattle Center
Tue 02:44:21 PM 47.8925 -119.1378 275° West 323 372 10,900 2,115 Climbing Seattle Center
Tue 02:45:22 PM 47.9014 -119.2758 276° West 335 386 14,200 3,148 Climbing Seattle Center
Tue 02:46:23 PM 47.9203 -119.4478 279° West 351 404 17,300 2,459 Climbing Seattle Center
Tue 02:47:24 PM 47.9358 -119.5969 279° West 360 414 19,200 2,016 Climbing Seattle Center
Tue 02:48:25 PM 47.9558 -119.7500 281° West 377 434 21,400 2,016 Climbing Seattle Center
Tue 02:49:26 PM 47.9753 -119.9089 280° West 393 452 23,300 1,033 Climbing Seattle Center
Tue 02:50:27 PM 47.9919 -120.0725 279° West 402 463 23,500 197 Climbing Seattle Center
Tue 02:51:28 PM 48.0056 -120.2347 277° West 397 457 23,700 148 Climbing Seattle Center
Tue 02:52:29 PM 48.0175 -120.3983 276° West 399 459 23,800 98 Climbing Seattle Center
Tue 02:53:30 PM 48.0303 -120.5619 277° West 400 460 23,900 -98 Climbing Seattle Center
Tue 02:54:32 PM 48.0361 -120.7236 273° West 394 453 23,600 -98 Descending Seattle Center
Tue 02:55:33 PM 48.0444 -120.8936 274° West 392 451 23,700 197 Climbing Seattle Center
Tue 02:56:34 PM 48.0481 -121.0558 272° West 392 451 24,000  Climbing Seattle Center
Tue 02:57:35 PM 48.0525 -121.2153 272° West 387 445 23,700 -98 Descending Seattle Center
Tue 02:58:36 PM 48.0583 -121.4069 273° West 389 448 23,800  Climbing Seattle Center
Tue 02:59:37 PM 48.0658 -121.5647 274° West 385 443 23,700  Descending Seattle Center
Tue 03:00:38 PM 48.0736 -121.7250 274° West 388 447 23,800  Climbing Seattle Center
Tue 03:01:40 PM 48.0906 -121.8814 279° West 389 448 23,700  Descending Seattle Center
Tue 03:02:41 PM 48.2008 -121.9225 346° North 457 526 23,800 197 Climbing Seattle Center
Tue 03:03:42 PM 48.2703 -121.7406 60° Northeast 531 611 24,100 1,082 Climbing Seattle Center
Tue 03:04:43 PM 48.2478 -121.5231 99° East 527 606 26,000 2,164 Climbing Seattle Center
Tue 03:05:44 PM 48.2247 -121.3064 99° East 526 605 28,500 2,066 Climbing Seattle Center
Tue 03:06:45 PM 48.2064 -121.0953 97° East 515 593 30,200 1,805 Climbing Seattle Center
Tue 03:07:47 PM 48.1778 -120.8914 102° East 501 577 32,200 1,610 Climbing Seattle Center
Tue 03:08:48 PM 48.1425 -120.6603 103° East 497 572 33,500 1,033 Climbing Seattle Center
Tue 03:09:49 PM 48.1114 -120.4581 103° East 500 575 34,300 885 Climbing Seattle Center
Tue 03:10:50 PM 48.0822 -120.2536 102° East 505 581 35,300 885 Climbing Seattle Center
Tue 03:11:51 PM 48.0478 -120.0506 104° East 506 582 36,100 738 Climbing Seattle Center
Tue 03:12:52 PM 48.0217 -119.8442 101° East 511 588 36,800 689 Climbing Seattle Center
Tue 03:13:53 PM 48.0092 -119.6339 95° East 514 592 37,500 590 Climbing Seattle Center
Tue 03:14:54 PM 47.9958 -119.4228 95° East 512 589 38,000 244 Climbing Seattle Center
Tue 03:15:56 PM 47.9817 -119.2103 96° East 516 594 38,000 49 Level Seattle Center
Tue 03:16:57 PM 47.9697 -118.9953 95° East 522 601 38,100  Climbing Seattle Center
Tue 03:17:58 PM 47.9569 -118.7803 95° East 522 601 38,000 49 Descending Seattle Center
Tue 03:18:59 PM 47.9436 -118.5219 94° East 523 602 38,200 98 Climbing Seattle Center
Tue 03:20:00 PM 47.9303 -118.3072 95° East 521 600 38,200 49 Level Seattle Center
Tue 03:21:01 PM 47.9111 -118.0933 98° East 521 600 38,300 98 Climbing Seattle Center
Tue 03:22:03 PM 47.8933 -117.8792 97° East 520 598 38,400 -49 Climbing Seattle Center
Tue 03:23:04 PM 47.8719 -117.6633 98° East 524 603 38,200 -148 Descending Seattle Center
Tue 03:24:05 PM 47.8489 -117.4489 99° East 524 603 38,100  Descending Seattle Center
Tue 03:25:06 PM 47.8283 -117.2328 98° East 524 603 38,200  Climbing Seattle Center
Tue 03:26:07 PM 47.8119 -117.0178 96° East 519 597 38,100 -148 Descending Seattle Center
Tue 03:27:08 PM 47.7956 -116.8039 96° East 516 594 37,900  Descending Seattle Center
Tue 03:28:09 PM 47.7811 -116.5911 96° East 514 592 38,100 49 Climbing Seattle Center
Tue 03:29:10 PM 47.7650 -116.3775 96° East 516 594 38,000  Descending Seattle Center
Tue 03:30:11 PM 47.7481 -116.1642 97° East 519 597 38,100 49 Climbing Seattle Center
Tue 03:31:12 PM 47.7286 -115.9542 98° East 516 594 38,100 -49 Level Seattle Center
Tue 03:32:14 PM 47.7028 -115.7078 99° East 520 598 38,000 -98 Descending Seattle Center
Tue 03:33:15 PM 47.6606 -115.5086 107° East 512 589 37,900  Descending Seattle Center
Tue 03:34:16 PM 47.5411 -115.4717 168° South 480 552 38,000  Climbing Seattle Center
Tue 03:35:17 PM 47.4958 -115.6192 246° West 437 503 37,900  Descending Seattle Center
Tue 03:36:18 PM 47.5297 -115.7989 286° West 433 498 38,000 98 Climbing Seattle Center
Tue 03:37:19 PM 47.5650 -115.9708 287° West 437 503 38,100 49 Climbing Seattle Center
Tue 03:38:20 PM 47.6000 -116.1439 287° West 441 507 38,100  Level Seattle Center
Tue 03:39:22 PM 47.6356 -116.3178 287° West 442 509 38,100 -49 Level Seattle Center
Tue 03:40:23 PM 47.6711 -116.4914 287° West 443 510 38,000 -98 Descending Seattle Center
Tue 03:41:24 PM 47.7058 -116.6669 286° West 446 513 37,900  Descending Seattle Center
Tue 03:42:25 PM 47.7400 -116.8411 286° West 447 514 38,000  Climbing Seattle Center
Tue 03:43:26 PM 47.7611 -117.0564 278° West 450 518 37,900  Descending Seattle Center
Tue 03:44:27 PM 47.7739 -117.2328 276° West 443 510 38,000 49 Climbing Seattle Center
Tue 03:45:28 PM 47.7878 -117.4103 277° West 439 505 38,000  Level Seattle Center
Tue 03:46:29 PM 47.8011 -117.5875 276° West 436 502 38,000  Level Seattle Center
Tue 03:47:31 PM 47.8150 -117.7644 277° West 434 499 38,000  Level Seattle Center
Tue 03:48:32 PM 47.8292 -117.9414 277° West 434 499 38,000 197 Level Seattle Center
Tue 03:49:33 PM 47.8439 -118.1208 277° West 438 504 38,400 393 Climbing Seattle Center
Tue 03:50:34 PM 47.8594 -118.3000 277° West 439 505 38,800 246 Climbing Seattle Center
Tue 03:51:35 PM 47.8775 -118.5158 277° West 439 505 38,900 197 Climbing Seattle Center
Tue 03:52:36 PM 47.8922 -118.6967 277° West 441 507 39,200 295 Climbing Seattle Center
Tue 03:53:37 PM 47.9075 -118.8775 277° West 443 510 39,500 -98 Climbing Seattle Center
Tue 03:54:38 PM 47.9233 -119.0592 277° West 444 511 39,000 -295 Descending Seattle Center
Tue 03:55:39 PM 47.9389 -119.2422 277° West 447 514 38,900 -49 Descending Seattle Center
Tue 03:56:40 PM 47.9539 -119.4253 277° West 448 516 38,900 49 Level Seattle Center
Tue 03:57:41 PM 47.9694 -119.6078 277° West 447 514 39,000  Climbing Seattle Center
Tue 03:58:42 PM 47.9831 -119.7894 276° West 444 511 38,900 -49 Descending Seattle Center
Tue 03:59:43 PM 47.9967 -119.9717 276° West 447 514 38,900  Level Seattle Center
Tue 04:00:44 PM 48.0100 -120.1547 276° West 447 514 38,900  Level Seattle Center
Tue 04:01:45 PM 48.0264 -120.3397 278° West 452 520 38,900 49 Level Seattle Center
Tue 04:02:46 PM 48.0533 -120.5650 280° West 463 533 39,000 49 Climbing Seattle Center
Tue 04:03:47 PM 48.0639 -120.7500 275° West 452 520 39,000  Level Seattle Center
Tue 04:05:00 PM 47.9648 -121.0452 243° Southwest  Level Estimated
Tue 04:05:49 PM 48.0825 -121.1325 243° Southwest 452 520 39,000  Level Seattle Center
Tue 04:06:50 PM 48.0922 -121.3203 275° West 455 524 39,000  Level Seattle Center
Tue 04:07:51 PM 48.1014 -121.5081 274° West 456 525 39,000  Level Seattle Center
Tue 04:08:52 PM 48.1122 -121.6961 275° West 457 526 39,000  Level Seattle Center
Tue 04:09:54 PM 48.0683 -121.8575 248° West 448 516 39,000  Level Seattle Center
Tue 04:10:55 PM 47.9494 -121.9150 198° South 460 529 39,000  Level Seattle Center
Tue 04:11:56 PM 47.8572 -121.7833 136° Southeast 490 564 39,000  Level Seattle Center
Tue 04:12:57 PM 47.8953 -121.5844 74° East 508 585 39,000  Level Seattle Center
Tue 04:13:58 PM 47.9528 -121.3869 66° East 518 596 39,000  Level Seattle Center
Tue 04:14:59 PM 48.0089 -121.1869 67° East 522 601 39,000  Level Seattle Center
Tue 04:16:00 PM 48.0569 -120.9867 70° East 522 601 39,000  Level Seattle Center
Tue 04:17:01 PM 48.0567 -120.7419 90° East 515 593 39,000 -49 Level Seattle Center
Tue 04:18:02 PM 48.0444 -120.5289 95° East 517 595 38,900  Descending Seattle Center
Tue 04:19:03 PM 48.0325 -120.3164 95° East 515 593 39,000 49 Climbing Seattle Center
Tue 04:20:04 PM 48.0197 -120.1047 95° East 515 593 39,000  Level Seattle Center
Tue 04:21:05 PM 48.0056 -119.8936 96° East 513 590 39,000  Level Seattle Center
Tue 04:22:06 PM 47.9914 -119.6822 96° East 515 593 39,000  Level Seattle Center
Tue 04:23:07 PM 47.9781 -119.4689 95° East 518 596 39,000  Level Seattle Center
Tue 04:24:08 PM 47.9617 -119.2558 96° East 518 596 39,000  Level Seattle Center
Tue 04:25:10 PM 47.9464 -119.0419 96° East 520 598 39,000  Level Seattle Center
Tue 04:26:11 PM 47.9289 -118.7850 96° East 523 602 39,000  Level Seattle Center
Tue 04:27:12 PM 47.9125 -118.5708 96° East 521 600 39,000  Level Seattle Center
Tue 04:28:13 PM 47.8956 -118.3578 97° East 519 597 39,000  Level Seattle Center
Tue 04:29:14 PM 47.8800 -118.1450 96° East 519 597 39,000 -49 Level Seattle Center
Tue 04:30:15 PM 47.8619 -117.9317 97° East 520 598 38,900 -49 Descending Seattle Center
Tue 04:31:16 PM 47.8444 -117.7175 97° East 521 600 38,900 49 Level Seattle Center
Tue 04:32:18 PM 47.8267 -117.5036 97° East 520 598 39,000 49 Climbing Seattle Center
Tue 04:33:19 PM 47.8086 -117.2872 97° East 522 601 39,000 -49 Level Seattle Center
Tue 04:34:20 PM 47.7903 -117.0703 97° East 523 602 38,900 -49 Descending Seattle Center
Tue 04:35:21 PM 47.7694 -116.8506 98° East 525 604 38,900  Level Seattle Center
Tue 04:36:22 PM 47.7486 -116.6364 98° East 521 600 38,900 49 Level Seattle Center
Tue 04:37:23 PM 47.7275 -116.4242 98° East 519 597 39,000 390 Climbing Seattle Center
Tue 04:38:25 PM 47.7075 -116.2125 98° East 518 596 39,700 439 Climbing Seattle Center
Tue 04:39:26 PM 47.6869 -116.0100 99° East 504 580 39,900 98 Climbing Seattle Center
Tue 04:40:27 PM 47.7300 -115.8350 70° East 482 555 39,900 49 Level Seattle Center
Tue 04:41:28 PM 47.8661 -115.8069 North 444 511 40,000 49 Climbing Seattle Center
Tue 04:42:29 PM 47.9369 -115.9233 312° West 405 466 40,000 -49 Level Seattle Center
Tue 04:43:30 PM 47.9469 -116.0786 276° West 386 444 39,900 -443 Descending Seattle Center
Tue 04:44:31 PM 47.9250 -116.2344 258° West 384 442 39,100 -836 Descending Seattle Center
Tue 04:45:32 PM 47.8975 -116.3964 256° West 400 460 38,200 -590 Descending Seattle Center
Tue 04:46:33 PM 47.8706 -116.5603 256° West 408 470 37,900 -390 Descending Seattle Center
Tue 04:47:35 PM 47.8428 -116.7264 256° West 414 476 37,400 -976 Descending Seattle Center
Tue 04:48:36 PM 47.8119 -116.9044 256° West 432 497 35,900 -1,328 Descending Seattle Center
Tue 04:49:37 PM 47.8144 -117.1333 271° West 467 537 34,700 -541 Descending Seattle Center
Tue 04:50:38 PM 47.8256 -117.3225 275° West 469 540 34,800  Climbing Seattle Center
Tue 04:51:39 PM 47.8389 -117.5092 276° West 462 532 34,700 -246 Descending Seattle Center
Tue 04:52:40 PM 47.8569 -117.6972 278° West 463 533 34,300 -246 Descending Seattle Center
Tue 04:53:41 PM 47.8786 -117.8858 280° West 465 535 34,200 293 Descending Seattle Center
Tue 04:54:43 PM 47.8961 -118.0728 278° West 460 529 34,900 341 Climbing Seattle Center
Tue 04:55:44 PM 47.9106 -118.2544 277° West 448 516 34,900 49 Level Seattle Center
Tue 04:56:45 PM 47.9269 -118.4308 278° West 435 501 35,000 98 Climbing Seattle Center
Tue 04:57:46 PM 47.9422 -118.6083 277° West 435 501 35,100 98 Climbing Seattle Center
Tue 04:58:47 PM 47.9614 -118.8219 278° West 435 501 35,200 98 Climbing Seattle Center
Tue 04:59:48 PM 47.9769 -118.9981 278° West 431 496 35,300 98 Climbing Seattle Center
Tue 05:00:49 PM 47.9928 -119.1719 278° West 427 491 35,400 98 Climbing Seattle Center
Tue 05:01:50 PM 48.0053 -119.3378 276° West 409 471 35,500 -98 Climbing Seattle Center
Tue 05:02:52 PM 48.0069 -119.5033 271° West 404 465 35,200 -195 Descending Seattle Center
Tue 05:03:53 PM 48.0044 -119.6694 269° West 401 461 35,100 -148 Descending Seattle Center
Tue 05:04:54 PM 48.0019 -119.8333 269° West 400 460 34,900 -148 Descending Seattle Center
Tue 05:05:55 PM 47.9925 -119.9972 265° West 401 461 34,800 -148 Descending Seattle Center
Tue 05:06:56 PM 47.9969 -120.1628 272° West 403 464 34,600 -885 Descending Seattle Center
Tue 05:07:57 PM 48.0158 -120.3406 279° West 441 507 33,000 -1,672 Descending Seattle Center
Tue 05:08:58 PM 48.0411 -120.5733 279° West 479 551 31,200 -1,525 Descending Seattle Center
Tue 05:09:59 PM 48.0581 -120.7689 277° West 477 549 29,900 -541 Descending Seattle Center
Tue 05:11:00 PM 48.0717 -120.9778 276° West 483 556 30,100  Climbing Seattle Center
Tue 05:12:02 PM 48.0850 -121.1783 276° West 486 559 29,900 -49 Descending Seattle Center
Tue 05:13:03 PM 48.1025 -121.3761 278° West 484 557 30,000 -49 Climbing Seattle Center
Tue 05:14:04 PM 48.1192 -121.5739 277° West 483 556 29,800 -49 Descending Seattle Center
Tue 05:15:05 PM 48.0456 -121.7094 231° Southwest 478 550 29,900 49 Climbing Seattle Center
Tue 05:16:06 PM 47.9456 -121.5822 140° Southeast 525 604 29,900  Level Seattle Center
Tue 05:17:07 PM 47.9567 -121.3600 86° East 540 621 29,900 49 Level Seattle Center
Tue 05:18:08 PM 47.9797 -121.1400 81° East 538 619 30,000 -98 Climbing Seattle Center
Tue 05:19:09 PM 48.0003 -120.9208 82° East 534 615 29,700 -98 Descending Seattle Center
Tue 05:20:10 PM 48.0178 -120.7114 83° East 538 619 29,800 98 Climbing Seattle Center
Tue 05:21:11 PM 48.0194 -120.4503 89° East 526 605 29,900  Climbing Seattle Center
Tue 05:22:12 PM 48.0022 -120.2461 97° East 503 579 29,800 -197 Descending Seattle Center
Tue 05:23:13 PM 47.9875 -120.0403 96° East 500 575 29,500 -49 Descending Seattle Center
Tue 05:24:14 PM 47.9789 -119.8322 93° East 504 580 29,700  Climbing Seattle Center
Tue 05:25:15 PM 47.9733 -119.6261 92° East 500 575 29,500 -537 Descending Seattle Center
Tue 05:26:17 PM 47.9617 -119.4169 95° East 506 582 28,600 -2,098 Descending Seattle Center
Tue 05:27:18 PM 47.9456 -119.2106 97° East 506 582 25,200 -1,770 Descending Seattle Center
Tue 05:28:19 PM 47.9269 -118.9992 97° East 514 592 25,000 -197 Descending Seattle Center
Tue 05:29:20 PM 47.9075 -118.7914 98° East 511 588 24,800 -98 Descending Seattle Center
Tue 05:30:21 PM 47.8886 -118.5839 98° East 508 585 24,800 148 Level Seattle Center
Tue 05:31:22 PM 47.8694 -118.3758 98° East 508 585 25,100 246 Climbing Seattle Center
Tue 05:32:23 PM 47.8489 -118.1228 97° East 514 592 25,300 -49 Climbing Seattle Center
Tue 05:33:24 PM 47.8333 -117.9144 96° East 509 586 25,000 -197 Descending Seattle Center
Tue 05:34:25 PM 47.8197 -117.7244 96° East 468 539 24,900  Descending Seattle Center
Tue 05:35:26 PM 47.8067 -117.5356 96° East 460 529 25,000 98 Climbing Seattle Center
Tue 05:36:27 PM 47.7936 -117.3428 96° East 465 535 25,100  Climbing Seattle Center
Tue 05:37:28 PM 47.7811 -117.1519 95° East 461 531 25,000 -98 Descending Seattle Center
Tue 05:38:29 PM 47.7658 -116.9728 97° East 441 507 24,900 49 Descending Seattle Center
Tue 05:39:30 PM 47.7528 -116.8108 97° East 405 466 25,100 148 Climbing Seattle Center
Tue 05:40:31 PM 47.7389 -116.6500 97° East 392 451 25,200  Climbing Seattle Center
Tue 05:41:32 PM 47.7242 -116.4883 98° East 393 452 25,100 -49 Descending Seattle Center
Tue 05:42:33 PM 47.7100 -116.3272 97° East 394 453 25,100 98 Level Seattle Center
Tue 05:43:34 PM 47.6981 -116.1647 96° East 395 455 25,300 -634 Climbing Seattle Center
Tue 05:44:36 PM 47.6861 -116.0000 96° East 399 459 23,800 -2,537 Descending Seattle Center
Tue 05:45:37 PM 47.6406 -115.8342 112° Southeast 445 512 20,100 -1,869 Descending Seattle Center
Tue 05:46:38 PM 47.5222 -115.8283 178° South 454 522 20,000 -49 Descending Seattle Center
Tue 05:47:39 PM 47.5039 -115.9908 261° West 450 518 20,000  Level Seattle Center
Tue 05:48:40 PM 47.5750 -116.1372 306° West 443 510 20,000  Level Seattle Center
Tue 05:49:41 PM 47.6786 -116.2933 315° West 448 516 20,000 -49 Level Seattle Center
Tue 05:50:42 PM 47.7244 -116.4572 293° West 456 525 19,900  Descending Seattle Center
Tue 05:51:43 PM 47.7422 -116.6350 279° West 441 507 20,000  Climbing Seattle Center
Tue 05:52:44 PM 47.7614 -116.8122 279° West 441 507 19,900 -49 Descending Seattle Center
Tue 05:53:45 PM 47.7811 -116.9875 280° West 439 505 19,900 -98 Level Seattle Center
Tue 05:54:46 PM 47.8017 -117.1617 280° West 437 503 19,700  Descending Seattle Center
Tue 05:55:46 PM 47.8217 -117.3392 280° West 440 506 19,900 149 Climbing Seattle Center
Tue 05:56:47 PM 47.8436 -117.5500 279° West 437 503 20,000 -49 Climbing Seattle Center
Tue 05:57:48 PM 47.8544 -117.7031 276° West 378 435 19,800  Descending Seattle Center
Tue 05:58:49 PM 47.8633 -117.8567 275° West 373 429 20,000 148 Climbing Seattle Center
Tue 05:59:50 PM 47.8725 -118.0083 275° West 370 426 20,100 -49 Climbing Seattle Center
Tue 06:00:51 PM 47.8842 -118.1606 277° West 371 427 19,900 -49 Descending Seattle Center
Tue 06:01:52 PM 47.8931 -118.3136 275° West 373 429 20,000  Climbing Seattle Center
Tue 06:02:53 PM 47.9014 -118.4544 275° West 347 399 19,900 -148 Descending Seattle Center
Tue 06:03:54 PM 47.9097 -118.5789 276° West 306 352 19,700 -49 Descending Seattle Center
Tue 06:04:55 PM 47.9214 -118.7036 278° West 305 351 19,800 49 Climbing Seattle Center
Tue 06:05:56 PM 47.9328 -118.8297 278° West 306 352 19,800 148 Level Seattle Center
Tue 06:06:57 PM 47.9447 -118.9578 278° West 311 358 20,100 98 Climbing Seattle Center
Tue 06:07:58 PM 47.9606 -119.0842 281° West 312 359 20,000 -298 Descending Seattle Center
Tue 06:08:58 PM 47.9672 -119.2097 275° West 307 353 19,500 -1,983 Descending Seattle Center
Tue 06:09:59 PM 47.9797 -119.3764 276° West 340 391 16,000 -3,541 Descending Seattle Center
Tue 06:11:00 PM 47.9883 -119.5311 275° West 372 428 12,300 -2,951 Descending Seattle Center
Tue 06:12:01 PM 47.9972 -119.6911 275° West 388 447 10,000 -1,180 Descending Seattle Center
Tue 06:13:02 PM 48.0086 -119.8500 276° West 387 445 9,900 98 Descending Seattle Center
Tue 06:14:03 PM 48.0178 -120.0086 275° West 385 443 10,200 98 Climbing Seattle Center
Tue 06:15:04 PM 48.0311 -120.1806 277° West 384 442 10,100  Descending Seattle Center
Tue 06:16:05 PM 48.0386 -120.3281 274° West 387 445 10,200 246 Climbing Seattle Center
Tue 06:17:06 PM 48.0417 -120.4869 272° West 385 443 10,600 49 Climbing Seattle Center
Tue 06:18:07 PM 48.0522 -120.6206 277° West 347 399 10,300 -148 Descending Seattle Center
Tue 06:19:08 PM 48.0569 -120.7567 273° West 329 379 10,300 98 Level Seattle Center
Tue 06:20:09 PM 48.0667 -120.8986 276° West 329 379 10,500 148 Climbing Seattle Center
Tue 06:21:10 PM 48.0722 -121.0289 274° West 324 373 10,600 98 Climbing Seattle Center
Tue 06:22:11 PM 48.0756 -121.1647 272° West 325 374 10,700  Climbing Seattle Center
Tue 06:23:12 PM 48.0794 -121.3031 272° West 277 319 10,600 -49 Descending Seattle Center
Tue 06:24:13 PM 48.0858 -121.4144 275° West 268 308 10,600 -49 Level Seattle Center
Tue 06:25:14 PM 48.0939 -121.5267 276° West 272 313 10,500  Descending Seattle Center
Tue 06:26:15 PM 48.1036 -121.6367 278° West 270 311 10,600  Climbing Seattle Center
Tue 06:27:16 PM 48.1158 -121.7475 279° West 271 312 10,500 -98 Descending Seattle Center
Tue 06:28:17 PM 48.1817 -121.7617 352° North 283 326 10,400 -49 Descending Seattle Center
Tue 06:29:18 PM 48.1786 -121.6475 92° East 280 322 10,400  Level Seattle Center
Tue 06:30:19 PM 48.1550 -121.5369 108° East 277 319 10,400 49 Level Seattle Center
Tue 06:31:20 PM 48.1314 -121.4264 108° East 279 321 10,500 -49 Climbing Seattle Center
Tue 06:32:21 PM 48.1061 -121.3175 109° East 278 320 10,300 -197 Descending Seattle Center
Tue 06:33:22 PM 48.0800 -121.2072 109° East 280 322 10,100 -98 Descending Seattle Center
Tue 06:34:23 PM 48.0558 -121.0964 108° East 282 325 10,100 49 Level Seattle Center
Tue 06:35:24 PM 48.0297 -120.9769 108° East 293 337 10,200 -49 Climbing Seattle Center
Tue 06:36:25 PM 48.0142 -120.8281 99° East 310 357 10,000 -98 Descending Seattle Center
Tue 06:37:26 PM 48.0114 -120.6997 92° East 312 359 10,000 49 Level Seattle Center
Tue 06:38:27 PM 47.9608 -120.6169 132° Southeast 321 369 10,100  Climbing Seattle Center
Tue 06:39:28 PM 47.9019 -120.6744 213° Southwest 295 339 10,000  Descending Seattle Center
Tue 06:40:29 PM 47.8917 -120.7817 262° West 280 322 10,100 148 Climbing Seattle Center
Tue 06:41:30 PM 47.8850 -120.8956 265° West 272 313 10,300 443 Climbing Seattle Center
Tue 06:42:31 PM 47.8844 -121.0081 270° West 274 315 11,000 344 Climbing Seattle Center
Tue 06:43:32 PM 47.8842 -121.1194 270° West 270 311 11,000  Level Seattle Center
Tue 06:44:01 PM 47.8872 -121.1869 274° West 273 314 11,000  Level Seattle Center
Tue 06:44:19 PM 47.8872 -121.2203 270° West 272 313 11,000  Level Seattle Center
Tue 06:44:33 PM 47.8847 -121.2300 249° West 269 310 11,000  Level Seattle Center
Tue 06:45:34 PM 47.8789 -121.3422 266° West 273 314 11,000  Level Seattle Center
Tue 06:46:21 PM 47.8639 -121.4394 257° West 271 312 11,000  Level Seattle Center
Tue 06:46:35 PM 47.8600 -121.4506 242° Southwest 273 314 11,000 -393 Level Seattle Center
Tue 06:47:22 PM 47.8450 -121.5464 257° West 268 308 10,600 -393 Descending Seattle Center
Tue 06:47:36 PM 47.8422 -121.5564 248° West 267 307 10,600 -590 Level Seattle Center
Tue 06:48:23 PM 47.8272 -121.6592 258° West 263 303 10,000 -590 Descending Seattle Center
Tue 06:48:37 PM 47.8231 -121.6828 255° West 262 302 10,000 -885 Level Seattle Center
Tue 06:49:24 PM 47.8128 -121.7667 260° West 261 300 9,100 -1,279 Descending Seattle Center
Tue 06:49:38 PM 47.8081 -121.7892 253° West 265 305 8,700 -1,500 Descending Seattle Center
Tue 06:50:24 PM 47.7981 -121.8744 260° West 265 305 7,600 -1,377 Descending Seattle Center
Tue 06:50:39 PM 47.7956 -121.8961 260° West 265 305 7,300 -1,279 Descending Seattle Center
Tue 06:51:25 PM 47.7864 -121.9767 260° West 262 302 6,300 -1,279 Descending Seattle Center
Tue 06:51:40 PM 47.7831 -122.0014 259° West 262 302 6,000 -885 Descending Seattle Center
Tue 06:52:26 PM 47.7753 -122.0819 262° West 254 292 5,400 -787 Descending Seattle Center
Tue 06:52:41 PM 47.7706 -122.1097 256° West 250 288 5,200 -1,026 Descending Seattle Center
Tue 06:53:42 PM 47.7592 -122.2036 260° West 234 269 4,100 -1,178 Descending Seattle Center
Tue 06:54:28 PM 47.7486 -122.2750 258° West 221 254 3,100 -984 Descending Seattle Center
Tue 06:54:43 PM 47.7425 -122.2947 245° Southwest 233 268 3,100 -492 Level Seattle Center
Tue 06:55:29 PM 47.7269 -122.3564 249° West 202 232 2,600 -689 Descending Seattle Center
Tue 06:55:44 PM 47.7233 -122.3706 249° West 204 235 2,400 -393 Descending Seattle Center
Tue 06:56:30 PM 47.7047 -122.4181 240° Southwest 179 206 2,200 -197 Descending Seattle Center
Tue 06:56:45 PM 47.6889 -122.4164 176° South 181 208 2,200  Level Seattle Center
Tue 06:57:31 PM 47.6556 -122.4089 171° South 184 212 2,200  Level Seattle Center
Tue 06:57:46 PM 47.6417 -122.3986 153° Southeast 179 206 2,200 -500 Level Seattle Center
Tue 06:58:31 PM 47.6114 -122.3742 151° Southeast 158 182 1,700 -689 Descending Seattle Center
Tue 06:58:47 PM 47.6031 -122.3653 144° Southeast 160 184 1,500 -885 Descending Seattle Center
Tue 06:59:32 PM 47.5744 -122.3419 151° Southeast 156 180 800 -871 Descending Seattle Center
Tue 06:59:49 PM 47.5644 -122.3322 147° Southeast 160 184 600 -538 Descending Seattle Center
Tue 07:00:50 PM 47.5314 -122.3042 150° Southeast 157 181 100 -492 Descending Seattle Center
Tue 07:02:00 PM 47.5300 -122.3020 233° Southwest  Level Estimated

Login

Don't have an account? Register now (free) for customized features, flight alerts, and more!